createdAt,value
2022-12-03T00:00:13.499Z,2.86
2022-12-03T00:04:06.046Z,2.77
2022-12-03T00:07:58.678Z,2.86
2022-12-03T00:11:51.443Z,2.80
2022-12-03T00:15:43.944Z,2.81
2022-12-03T00:19:36.973Z,2.76
2022-12-03T00:23:29.601Z,2.93
2022-12-03T00:27:22.298Z,2.87
2022-12-03T00:31:14.866Z,2.94
2022-12-03T00:35:07.835Z,2.84
2022-12-03T00:39:00.200Z,3.01
2022-12-03T00:42:52.772Z,3.05
2022-12-03T00:46:45.539Z,2.88
2022-12-03T00:50:38.654Z,2.93
2022-12-03T00:54:32.333Z,2.94
2022-12-03T00:58:24.997Z,2.91
2022-12-03T01:02:17.706Z,3.03
2022-12-03T01:06:10.616Z,2.97
2022-12-03T01:10:04.451Z,2.88
2022-12-03T01:13:56.992Z,2.81
2022-12-03T01:17:49.520Z,2.96
2022-12-03T01:21:47.871Z,2.87
2022-12-03T01:25:40.441Z,2.97
2022-12-03T01:29:32.872Z,2.97
2022-12-03T01:33:25.348Z,2.81
2022-12-03T01:37:18.762Z,2.83
2022-12-03T01:41:12.201Z,2.83
2022-12-03T01:45:05.921Z,2.64
2022-12-03T01:48:58.576Z,2.84
2022-12-03T01:52:52.262Z,2.77
2022-12-03T01:56:45.656Z,2.76
2022-12-03T02:00:38.333Z,2.86
2022-12-03T02:04:31.100Z,2.90
2022-12-03T02:08:39.360Z,2.86
2022-12-03T02:12:34.356Z,2.73
2022-12-03T02:16:26.926Z,2.87
2022-12-03T02:20:20.048Z,2.75
2022-12-03T02:24:43.880Z,2.93
2022-12-03T02:28:36.654Z,2.80
2022-12-03T02:32:29.314Z,2.83
2022-12-03T02:36:22.087Z,2.80
2022-12-03T02:40:19.548Z,2.76
2022-12-03T02:44:12.364Z,2.67
2022-12-03T02:48:38.349Z,2.63
2022-12-03T02:52:31.170Z,2.54
2022-12-03T02:56:29.694Z,2.77
2022-12-03T03:00:23.080Z,2.64
2022-12-03T03:04:15.768Z,2.76
2022-12-03T03:08:09.928Z,2.70
2022-12-03T03:12:02.544Z,2.75
2022-12-03T03:15:55.787Z,2.80
2022-12-03T03:19:48.285Z,2.52
2022-12-03T03:23:40.781Z,2.67
2022-12-03T03:27:34.092Z,2.83
2022-12-03T03:31:26.908Z,2.75
2022-12-03T03:35:19.584Z,2.70
2022-12-03T03:39:12.533Z,2.76
2022-12-03T03:43:06.207Z,2.72
2022-12-03T03:46:58.871Z,2.72
2022-12-03T03:50:52.411Z,2.73
2022-12-03T03:54:45.216Z,2.69
2022-12-03T03:58:38.234Z,2.72
2022-12-03T04:02:32.385Z,2.59
2022-12-03T04:06:24.895Z,2.60
2022-12-03T04:10:36.021Z,2.57
2022-12-03T04:14:28.569Z,2.61
2022-12-03T04:18:40.075Z,2.66
2022-12-03T04:22:41.655Z,2.63
2022-12-03T04:26:53.071Z,2.64
2022-12-03T04:30:45.551Z,2.72
2022-12-03T04:34:57.131Z,2.73
2022-12-03T04:38:49.805Z,2.63
2022-12-03T04:42:42.210Z,2.76
2022-12-03T04:46:34.752Z,2.63
2022-12-03T04:50:27.144Z,2.69
2022-12-03T04:54:19.703Z,2.69
2022-12-03T04:58:12.079Z,2.80
2022-12-03T05:02:06.038Z,2.67
2022-12-03T05:05:58.674Z,2.81
2022-12-03T05:09:52.094Z,2.60
2022-12-03T05:13:44.728Z,2.72
2022-12-03T05:17:37.110Z,2.80
2022-12-03T05:21:29.738Z,2.70
2022-12-03T05:25:22.492Z,2.77
2022-12-03T05:29:15.576Z,2.88
2022-12-03T05:33:08.114Z,2.70
2022-12-03T05:37:00.817Z,2.81
2022-12-03T05:40:53.447Z,2.83
2022-12-03T05:44:45.928Z,2.91
2022-12-03T05:48:38.585Z,2.83
2022-12-03T05:52:30.951Z,2.84
2022-12-03T05:56:23.548Z,2.84
2022-12-03T06:00:27.165Z,2.88
2022-12-03T06:04:19.674Z,2.80
2022-12-03T06:08:12.184Z,2.96
2022-12-03T06:12:06.643Z,2.86
2022-12-03T06:15:59.429Z,2.94
2022-12-03T06:19:52.421Z,2.94
2022-12-03T06:23:45.048Z,2.88
2022-12-03T06:27:37.661Z,2.96
2022-12-03T06:31:30.210Z,2.88
2022-12-03T06:35:23.022Z,3.07
2022-12-03T06:39:16.483Z,2.97
2022-12-03T06:43:09.560Z,3.08
2022-12-03T06:47:02.470Z,2.97
2022-12-03T06:50:54.871Z,2.97
2022-12-03T06:54:47.439Z,2.98
2022-12-03T06:58:40.245Z,3.08
2022-12-03T07:02:33.050Z,3.05
2022-12-03T07:06:25.613Z,2.98
2022-12-03T07:10:19.549Z,3.11
2022-12-03T07:14:12.509Z,3.29
2022-12-03T07:18:05.378Z,3.11
2022-12-03T07:21:58.183Z,3.21
2022-12-03T07:25:50.726Z,3.25
2022-12-03T07:29:43.608Z,3.40
2022-12-03T07:33:36.060Z,3.46
2022-12-03T07:37:28.636Z,3.48
2022-12-03T07:41:21.489Z,3.62
2022-12-03T07:45:14.031Z,3.80
2022-12-03T07:49:06.471Z,3.74
2022-12-03T07:52:59.319Z,3.84
2022-12-03T07:56:55.506Z,3.77
2022-12-03T08:00:52.344Z,3.66
2022-12-03T08:04:44.898Z,3.74
2022-12-03T08:08:37.412Z,3.70
2022-12-03T08:12:43.063Z,3.83
2022-12-03T08:16:37.870Z,3.79
2022-12-03T08:20:35.118Z,3.76
2022-12-03T08:24:27.756Z,3.80
2022-12-03T08:28:26.800Z,4.07
2022-12-03T08:32:19.629Z,3.98
2022-12-03T08:36:29.766Z,4.04
2022-12-03T08:40:35.608Z,4.17
2022-12-03T08:44:32.792Z,4.21
2022-12-03T08:48:37.026Z,4.41
2022-12-03T08:52:34.561Z,4.25
2022-12-03T08:56:28.360Z,4.25
2022-12-03T09:00:23.737Z,4.29
2022-12-03T09:04:41.090Z,4.31
2022-12-03T09:08:33.671Z,4.59
2022-12-03T09:12:26.375Z,4.49
2022-12-03T09:16:19.979Z,4.45
2022-12-03T09:20:12.635Z,4.35
2022-12-03T09:24:05.487Z,4.42
2022-12-03T09:27:57.991Z,4.49
2022-12-03T09:31:50.785Z,4.52
2022-12-03T09:35:43.498Z,4.38
2022-12-03T09:39:36.352Z,4.41
2022-12-03T09:44:02.836Z,4.42
2022-12-03T09:47:49.286Z,4.45
2022-12-03T09:51:42.207Z,4.49
2022-12-03T09:55:34.960Z,4.62
2022-12-03T09:59:31.695Z,4.60
2022-12-03T10:03:30.089Z,4.79
2022-12-03T10:07:38.196Z,4.69
2022-12-03T10:11:31.675Z,4.77
2022-12-03T10:15:25.014Z,4.76
2022-12-03T10:19:27.689Z,4.84
2022-12-03T10:23:26.206Z,4.83
2022-12-03T10:27:30.046Z,4.98
2022-12-03T10:31:36.179Z,5.01
2022-12-03T10:35:41.392Z,5.03
2022-12-03T10:39:56.855Z,5.14
2022-12-03T10:43:49.443Z,5.18
2022-12-03T10:47:43.274Z,5.31
2022-12-03T10:51:38.132Z,5.14
2022-12-03T10:55:37.709Z,5.07
2022-12-03T10:59:33.269Z,5.20
2022-12-03T11:03:28.460Z,5.27
2022-12-03T11:07:22.307Z,5.22
2022-12-03T11:11:23.804Z,5.27
2022-12-03T11:15:16.876Z,5.31
2022-12-03T11:19:39.362Z,5.42
2022-12-03T11:23:47.120Z,5.49
2022-12-03T11:27:40.472Z,5.48
2022-12-03T11:31:37.804Z,5.59
2022-12-03T11:35:58.182Z,5.43
2022-12-03T11:39:51.073Z,5.67
2022-12-03T11:43:52.943Z,5.77
2022-12-03T11:48:12.147Z,5.77
2022-12-03T11:52:20.180Z,5.66
2022-12-03T11:56:19.087Z,5.66
2022-12-03T12:00:23.821Z,5.49
2022-12-03T12:04:38.025Z,5.56
2022-12-03T12:08:31.318Z,5.58
2022-12-03T12:12:54.951Z,5.58
2022-12-03T12:16:51.205Z,5.58
2022-12-03T12:20:43.995Z,5.69
2022-12-03T12:24:43.803Z,5.74
2022-12-03T12:28:36.351Z,5.63
2022-12-03T12:32:31.680Z,5.83
2022-12-03T12:36:24.084Z,6.01
2022-12-03T12:40:18.460Z,5.98
2022-12-03T12:44:13.285Z,5.97
2022-12-03T12:48:14.653Z,6.07
2022-12-03T12:52:14.187Z,5.89
2022-12-03T12:56:06.593Z,6.10
2022-12-03T12:59:59.286Z,5.97
2022-12-03T13:03:53.214Z,5.96
2022-12-03T13:07:45.909Z,6.04
2022-12-03T13:11:46.007Z,6.14
2022-12-03T13:15:48.993Z,6.17
2022-12-03T13:19:47.594Z,6.03
2022-12-03T13:23:43.554Z,6.04
2022-12-03T13:27:36.311Z,6.29
2022-12-03T13:31:33.792Z,6.11
2022-12-03T13:35:32.052Z,6.31
2022-12-03T13:39:31.632Z,6.15
2022-12-03T13:43:24.362Z,6.20
2022-12-03T13:47:21.269Z,6.15
2022-12-03T13:51:24.914Z,6.15
2022-12-03T13:55:26.643Z,6.11
2022-12-03T13:59:25.754Z,6.18
2022-12-03T14:03:18.849Z,6.24
2022-12-03T14:07:11.485Z,6.24
2022-12-03T14:11:04.346Z,6.45
2022-12-03T14:14:57.660Z,6.22
2022-12-03T14:18:50.275Z,6.18
2022-12-03T14:22:42.760Z,6.32
2022-12-03T14:26:35.478Z,6.24
2022-12-03T14:30:28.051Z,6.20
2022-12-03T14:34:20.660Z,6.38
2022-12-03T14:38:13.191Z,6.25
2022-12-03T14:42:15.040Z,6.32
2022-12-03T14:46:07.917Z,6.31
2022-12-03T14:50:00.383Z,6.28
2022-12-03T14:53:52.951Z,6.21
2022-12-03T14:57:45.525Z,6.25
2022-12-03T15:01:38.058Z,6.24
2022-12-03T15:05:30.693Z,6.21
2022-12-03T15:09:23.321Z,6.34
2022-12-03T15:13:16.367Z,6.27
2022-12-03T15:17:09.055Z,6.25
2022-12-03T15:21:02.290Z,6.14
2022-12-03T15:24:54.903Z,6.15
2022-12-03T15:28:48.501Z,6.10
2022-12-03T15:32:41.322Z,6.21
2022-12-03T15:36:33.934Z,6.06
2022-12-03T15:40:27.496Z,6.20
2022-12-03T15:44:20.049Z,6.08
2022-12-03T15:48:13.880Z,5.97
2022-12-03T15:52:08.385Z,6.10
2022-12-03T15:56:01.117Z,6.15
2022-12-03T15:59:55.370Z,6.08
2022-12-03T16:03:48.544Z,6.04
2022-12-03T16:07:41.323Z,5.96
2022-12-03T16:11:34.330Z,5.93
2022-12-03T16:15:27.546Z,6.03
2022-12-03T16:19:20.825Z,6.03
2022-12-03T16:23:13.439Z,6.07
2022-12-03T16:27:06.549Z,5.93
2022-12-03T16:30:59.648Z,6.11
2022-12-03T16:34:53.682Z,5.98
2022-12-03T16:38:46.822Z,5.90
2022-12-03T16:42:40.258Z,5.91
2022-12-03T16:46:33.532Z,5.93
2022-12-03T16:50:29.903Z,5.98
2022-12-03T16:54:23.394Z,5.90
2022-12-03T16:58:16.350Z,5.90
2022-12-03T17:02:13.809Z,5.86
2022-12-03T17:06:07.086Z,5.86
2022-12-03T17:10:00.621Z,5.96
2022-12-03T17:13:53.223Z,5.85
2022-12-03T17:17:45.766Z,5.96
2022-12-03T17:21:38.838Z,5.94
2022-12-03T17:25:31.379Z,5.87
2022-12-03T17:29:23.916Z,5.89
2022-12-03T17:33:16.712Z,5.96
2022-12-03T17:37:09.428Z,5.98
2022-12-03T17:41:02.459Z,5.96
2022-12-03T17:44:54.930Z,5.86
2022-12-03T17:48:47.686Z,5.98
2022-12-03T17:52:40.417Z,5.80
2022-12-03T17:56:33.453Z,5.98
2022-12-03T18:00:26.230Z,5.66
2022-12-03T18:04:18.944Z,5.71
2022-12-03T18:08:11.940Z,5.86
2022-12-03T18:12:05.066Z,5.67
2022-12-03T18:15:57.682Z,5.66
2022-12-03T18:19:50.521Z,5.63
2022-12-03T18:23:43.535Z,5.55
2022-12-03T18:27:36.332Z,5.69
2022-12-03T18:31:28.978Z,5.55
2022-12-03T18:35:21.945Z,5.56
2022-12-03T18:39:26.652Z,5.49
2022-12-03T18:43:19.511Z,5.49
2022-12-03T18:47:18.836Z,5.48
2022-12-03T18:51:19.155Z,5.58
2022-12-03T18:55:18.966Z,5.52
2022-12-03T18:59:12.786Z,5.42
2022-12-03T19:03:07.629Z,5.52
2022-12-03T19:07:01.052Z,5.62
2022-12-03T19:10:59.736Z,5.55
2022-12-03T19:14:52.675Z,5.60
2022-12-03T19:18:47.220Z,5.34
2022-12-03T19:22:40.215Z,5.45
2022-12-03T19:26:33.020Z,5.38
2022-12-03T19:30:25.659Z,5.21
2022-12-03T19:34:19.677Z,5.36
2022-12-03T19:38:12.665Z,5.39
2022-12-03T19:42:05.914Z,5.34
2022-12-03T19:46:06.163Z,5.14
2022-12-03T19:49:59.192Z,4.97
2022-12-03T19:53:52.250Z,5.05
2022-12-03T19:57:45.288Z,5.13
2022-12-03T20:01:41.001Z,5.10
2022-12-03T20:05:38.904Z,5.08
2022-12-03T20:09:32.441Z,5.00
2022-12-03T20:13:25.651Z,4.88
2022-12-03T20:17:18.658Z,4.91
2022-12-03T20:21:13.406Z,4.90
2022-12-03T20:25:06.895Z,4.83
2022-12-03T20:29:00.207Z,4.88
2022-12-03T20:32:53.170Z,5.03
2022-12-03T20:36:46.352Z,4.93
2022-12-03T20:40:42.078Z,4.97
2022-12-03T20:44:34.693Z,4.93
2022-12-03T20:48:27.662Z,4.88
2022-12-03T20:52:20.766Z,5.08
2022-12-03T20:56:37.799Z,4.97
2022-12-03T21:00:31.805Z,4.87
2022-12-03T21:04:24.589Z,4.90
2022-12-03T21:08:33.017Z,4.87
2022-12-03T21:12:30.339Z,5.00
2022-12-03T21:16:51.913Z,4.98
2022-12-03T21:20:45.442Z,4.98
2022-12-03T21:24:38.187Z,4.87
2022-12-03T21:28:30.843Z,4.94
2022-12-03T21:32:23.585Z,4.79
2022-12-03T21:36:17.017Z,4.94
2022-12-03T21:40:10.233Z,4.93
2022-12-03T21:44:03.576Z,4.83
2022-12-03T21:47:56.531Z,4.75
2022-12-03T21:51:49.412Z,4.91
2022-12-03T21:55:42.941Z,4.91
2022-12-03T21:59:36.067Z,5.10
2022-12-03T22:03:28.750Z,4.97
2022-12-03T22:07:21.332Z,5.05
2022-12-03T22:11:20.791Z,5.07
2022-12-03T22:15:18.391Z,5.03
2022-12-03T22:19:11.125Z,5.03
2022-12-03T22:23:03.649Z,5.25
2022-12-03T22:26:56.351Z,5.11
2022-12-03T22:30:48.861Z,5.27
2022-12-03T22:34:44.381Z,5.34
2022-12-03T22:38:37.073Z,5.11
2022-12-03T22:42:29.524Z,5.15
2022-12-03T22:46:22.200Z,5.21
2022-12-03T22:50:15.206Z,5.08
2022-12-03T22:54:07.867Z,5.13
2022-12-03T22:58:00.116Z,5.18
2022-12-03T23:01:53.292Z,5.03
2022-12-03T23:05:46.086Z,5.11
2022-12-03T23:09:38.411Z,4.98
2022-12-03T23:13:32.120Z,4.98
2022-12-03T23:17:24.635Z,5.10
2022-12-03T23:21:28.525Z,5.01
2022-12-03T23:25:22.715Z,4.95
2022-12-03T23:29:15.258Z,5.17
2022-12-03T23:33:07.613Z,5.10
2022-12-03T23:37:00.293Z,4.98
2022-12-03T23:40:53.197Z,5.00
2022-12-03T23:44:45.639Z,4.86
2022-12-03T23:48:38.699Z,5.04
2022-12-03T23:52:31.765Z,4.87
2022-12-03T23:56:30.000Z,4.91
